createdAt,value
2018-02-16T00:01:20.875Z,97702.07
2018-02-16T00:03:47.965Z,97712.58
2018-02-16T00:06:15.289Z,97701.45
2018-02-16T00:08:42.360Z,97691.98
2018-02-16T00:11:09.423Z,97699.20
2018-02-16T00:13:36.477Z,97694.97
2018-02-16T00:16:03.615Z,97699.98
2018-02-16T00:18:30.692Z,97689.69
2018-02-16T00:20:57.785Z,97693.91
2018-02-16T00:23:24.854Z,97688.45
2018-02-16T00:25:51.924Z,97690.31
2018-02-16T00:28:19.028Z,97688.12
2018-02-16T00:30:46.033Z,97691.31
2018-02-16T00:33:13.050Z,97686.88
2018-02-16T00:35:40.114Z,97692.36
2018-02-16T00:38:07.172Z,97684.84
2018-02-16T00:40:34.231Z,97689.50
2018-02-16T00:43:01.312Z,97681.28
2018-02-16T00:45:28.359Z,97676.07
2018-02-16T00:47:55.365Z,97675.27
2018-02-16T00:50:22.321Z,97686.63
2018-02-16T00:52:49.622Z,97682.80
2018-02-16T00:55:16.747Z,97680.56
2018-02-16T00:57:43.809Z,97682.60
2018-02-16T01:00:10.847Z,97681.72
2018-02-16T01:02:38.058Z,97696.17
2018-02-16T01:05:05.061Z,97696.42
2018-02-16T01:07:32.117Z,97695.70
2018-02-16T01:09:59.183Z,97698.59
2018-02-16T01:12:26.302Z,97693.86
2018-02-16T01:14:53.408Z,97692.99
2018-02-16T01:17:20.517Z,97684.83
2018-02-16T01:19:47.573Z,97672.12
2018-02-16T01:22:14.588Z,97678.34
2018-02-16T01:24:41.791Z,97684.80
2018-02-16T01:27:08.971Z,97679.05
2018-02-16T01:29:36.030Z,97689.59
2018-02-16T01:32:03.085Z,97676.96
2018-02-16T01:34:30.155Z,97683.60
2018-02-16T01:36:57.194Z,97670.44
2018-02-16T01:39:24.224Z,97679.84
2018-02-16T01:41:51.303Z,97688.05
2018-02-16T01:44:18.387Z,97684.55
2018-02-16T01:46:45.497Z,97684.91
2018-02-16T01:49:12.510Z,97681.58
2018-02-16T01:51:39.531Z,97684.95
2018-02-16T01:54:06.677Z,97679.56
2018-02-16T01:56:33.713Z,97686.14
2018-02-16T01:59:00.739Z,97686.58
2018-02-16T02:01:27.702Z,97696.70
2018-02-16T02:03:54.766Z,97686.02
2018-02-16T02:06:21.956Z,97685.09
2018-02-16T02:08:48.990Z,97685.66
2018-02-16T02:11:16.041Z,97696.98
2018-02-16T02:13:43.133Z,97694.22
2018-02-16T02:16:10.177Z,97690.73
2018-02-16T02:18:37.400Z,97684.46
2018-02-16T02:21:04.459Z,97679.86
2018-02-16T02:23:31.482Z,97678.68
2018-02-16T02:25:58.559Z,97685.11
2018-02-16T02:28:25.922Z,97688.86
2018-02-16T02:30:53.053Z,97693.08
2018-02-16T02:33:20.682Z,97683.20
2018-02-16T02:35:47.689Z,97688.74
2018-02-16T02:38:14.711Z,97689.63
2018-02-16T02:40:41.719Z,97689.35
2018-02-16T02:43:08.732Z,97685.84
2018-02-16T02:45:35.834Z,97692.78
2018-02-16T02:48:02.834Z,97684.80
2018-02-16T02:50:29.926Z,97680.27
2018-02-16T02:52:57.007Z,97676.98
2018-02-16T02:55:23.993Z,97686.70
2018-02-16T02:57:51.245Z,97695.59
2018-02-16T03:00:18.308Z,97687.33
2018-02-16T03:02:45.412Z,97696.22
2018-02-16T03:05:12.438Z,97696.08
2018-02-16T03:07:39.485Z,97691.20
2018-02-16T03:10:06.591Z,97694.61
2018-02-16T03:12:33.879Z,97691.47
2018-02-16T03:15:00.955Z,97690.00
2018-02-16T03:17:28.085Z,97679.09
2018-02-16T03:19:55.133Z,97688.71
2018-02-16T03:22:22.233Z,97680.45
2018-02-16T03:24:49.250Z,97677.84
2018-02-16T03:27:16.573Z,97673.02
2018-02-16T03:29:43.635Z,97669.85
2018-02-16T03:32:10.667Z,97671.84
2018-02-16T03:34:37.990Z,97667.48
2018-02-16T03:37:05.066Z,97667.70
2018-02-16T03:39:32.119Z,97671.63
2018-02-16T03:41:59.450Z,97679.09
2018-02-16T03:44:26.471Z,97683.64
2018-02-16T03:46:53.552Z,97687.91
2018-02-16T03:49:20.573Z,97687.62
2018-02-16T03:51:47.587Z,97691.37
2018-02-16T03:54:14.544Z,97692.73
2018-02-16T03:56:41.863Z,97691.20
2018-02-16T03:59:09.017Z,97698.17
2018-02-16T04:01:36.131Z,97701.72
2018-02-16T04:04:03.230Z,97708.19
2018-02-16T04:06:30.241Z,97704.70
2018-02-16T04:08:57.234Z,97705.78
2018-02-16T04:11:24.338Z,97709.38
2018-02-16T04:13:51.465Z,97714.97
2018-02-16T04:16:18.564Z,97716.22
2018-02-16T04:18:45.647Z,97736.09
2018-02-16T04:21:12.734Z,97731.38
2018-02-16T04:23:39.798Z,97731.73
2018-02-16T04:26:06.819Z,97733.14
2018-02-16T04:28:33.870Z,97737.64
2018-02-16T04:31:00.893Z,97747.05
2018-02-16T04:33:27.963Z,97736.91
2018-02-16T04:35:55.023Z,97740.94
2018-02-16T04:38:22.107Z,97742.44
2018-02-16T04:40:49.213Z,97751.28
2018-02-16T04:43:16.276Z,97750.30
2018-02-16T04:45:43.426Z,97740.44
2018-02-16T04:48:10.503Z,97736.04
2018-02-16T04:50:37.595Z,97747.55
2018-02-16T04:53:04.580Z,97753.88
2018-02-16T04:55:31.611Z,97751.64
2018-02-16T04:57:58.650Z,97757.75
2018-02-16T05:00:25.750Z,97763.33
2018-02-16T05:02:52.825Z,97765.30
2018-02-16T05:05:19.908Z,97763.47
2018-02-16T05:07:46.987Z,97765.10
2018-02-16T05:10:14.062Z,97763.69
2018-02-16T05:12:41.167Z,97758.56
2018-02-16T05:15:08.212Z,97765.27
2018-02-16T05:17:35.274Z,97765.05
2018-02-16T05:20:02.324Z,97763.47
2018-02-16T05:22:29.456Z,97753.84
2018-02-16T05:24:56.530Z,97754.06
2018-02-16T05:27:23.559Z,97749.06
2018-02-16T05:29:50.542Z,97762.79
2018-02-16T05:32:17.545Z,97760.45
2018-02-16T05:34:44.567Z,97757.84
2018-02-16T05:37:11.692Z,97753.03
2018-02-16T05:39:38.724Z,97769.17
2018-02-16T05:42:06.042Z,97772.80
2018-02-16T05:44:33.109Z,97768.98
2018-02-16T05:47:00.285Z,97765.34
2018-02-16T05:49:27.367Z,97766.72
2018-02-16T05:51:54.415Z,97767.34
2018-02-16T05:54:21.455Z,97763.06
2018-02-16T05:56:48.442Z,97765.41
2018-02-16T05:59:15.573Z,97776.66
2018-02-16T06:01:42.537Z,97790.44
2018-02-16T06:04:09.675Z,97797.59
2018-02-16T06:06:36.750Z,97798.95
2018-02-16T06:09:03.915Z,97796.34
2018-02-16T06:11:30.868Z,97800.00
2018-02-16T06:13:57.949Z,97793.31
2018-02-16T06:16:25.033Z,97799.19
2018-02-16T06:18:52.127Z,97798.14
2018-02-16T06:21:19.138Z,97792.04
2018-02-16T06:23:46.158Z,97790.91
2018-02-16T06:26:13.237Z,97794.24
2018-02-16T06:28:40.297Z,97807.90
2018-02-16T06:31:07.347Z,97808.16
2018-02-16T06:33:35.552Z,97795.61
2018-02-16T06:36:04.367Z,97801.83
2018-02-16T06:38:31.407Z,97796.75
2018-02-16T06:40:58.469Z,97801.36
2018-02-16T06:43:25.528Z,97811.49
2018-02-16T06:45:52.575Z,97824.84
2018-02-16T06:48:19.696Z,97812.70
2018-02-16T06:50:46.754Z,97814.84
2018-02-16T06:53:13.826Z,97824.73
2018-02-16T06:55:40.857Z,97814.19
2018-02-16T06:58:07.893Z,97816.48
2018-02-16T07:00:34.904Z,97805.19
2018-02-16T07:03:01.980Z,97802.73
2018-02-16T07:05:29.055Z,97813.86
2018-02-16T07:07:56.159Z,97821.91
2018-02-16T07:10:23.235Z,97819.67
2018-02-16T07:12:50.272Z,97822.91
2018-02-16T07:15:17.334Z,97833.00
2018-02-16T07:17:45.220Z,97838.80
2018-02-16T07:20:12.256Z,97843.09
2018-02-16T07:22:39.327Z,97845.25
2018-02-16T07:25:07.052Z,97834.48
2018-02-16T07:27:34.109Z,97836.77
2018-02-16T07:30:01.128Z,97836.72
2018-02-16T07:32:28.201Z,97835.73
2018-02-16T07:34:55.252Z,97835.58
2018-02-16T07:37:22.299Z,97829.40
2018-02-16T07:39:49.392Z,97829.25
2018-02-16T07:42:16.913Z,97832.28
2018-02-16T07:44:44.619Z,97834.41
2018-02-16T07:47:11.660Z,97841.69
2018-02-16T07:49:38.804Z,97841.88
2018-02-16T07:52:05.821Z,97833.47
2018-02-16T07:54:33.172Z,97834.30
2018-02-16T07:57:00.285Z,97830.00
2018-02-16T07:59:27.741Z,97828.94
2018-02-16T08:01:54.829Z,97831.84
2018-02-16T08:04:21.870Z,97844.58
2018-02-16T08:06:48.939Z,97843.62
2018-02-16T08:09:15.897Z,97847.56
2018-02-16T08:11:43.213Z,97843.87
2018-02-16T08:14:10.311Z,97844.92
2018-02-16T08:16:37.403Z,97841.40
2018-02-16T08:19:04.483Z,97842.29
2018-02-16T08:21:31.508Z,97837.03
2018-02-16T08:23:59.184Z,97834.09
2018-02-16T08:26:26.349Z,97844.33
2018-02-16T08:28:53.413Z,97852.89
2018-02-16T08:31:20.517Z,97858.40
2018-02-16T08:33:47.483Z,97860.19
2018-02-16T08:36:15.145Z,97860.39
2018-02-16T08:38:42.116Z,97865.86
2018-02-16T08:41:09.158Z,97867.34
2018-02-16T08:43:36.277Z,97866.89
2018-02-16T08:46:03.466Z,97864.23
2018-02-16T08:48:30.558Z,97865.14
2018-02-16T08:50:57.643Z,97865.54
2018-02-16T08:53:24.702Z,97859.02
2018-02-16T08:55:51.757Z,97861.97
2018-02-16T08:58:18.835Z,97861.09
2018-02-16T09:00:45.811Z,97859.30
2018-02-16T09:03:12.871Z,97868.27
2018-02-16T09:05:39.844Z,97875.97
2018-02-16T09:08:06.848Z,97884.69
2018-02-16T09:10:33.897Z,97883.19
2018-02-16T09:13:00.934Z,97874.80
2018-02-16T09:15:27.970Z,97879.06
2018-02-16T09:17:55.074Z,97886.69
2018-02-16T09:20:22.162Z,97893.04
2018-02-16T09:22:49.197Z,97893.66
2018-02-16T09:25:16.280Z,97893.34
2018-02-16T09:27:43.410Z,97903.91
2018-02-16T09:30:10.503Z,97906.29
2018-02-16T09:32:37.532Z,97909.12
2018-02-16T09:35:04.578Z,97905.27
2018-02-16T09:37:32.484Z,97902.20
2018-02-16T09:40:00.579Z,97903.94
2018-02-16T09:42:27.602Z,97911.82
2018-02-16T09:44:54.675Z,97902.48
2018-02-16T09:47:21.863Z,97912.23
2018-02-16T09:49:48.900Z,97904.86
2018-02-16T09:52:15.957Z,97910.80
2018-02-16T09:54:43.079Z,97909.23
2018-02-16T09:57:10.103Z,97918.32
2018-02-16T09:59:37.160Z,97918.36
2018-02-16T10:02:04.210Z,97926.63
2018-02-16T10:04:31.225Z,97930.70
2018-02-16T10:06:58.286Z,97935.50
2018-02-16T10:09:25.398Z,97931.02
2018-02-16T10:11:52.441Z,97933.91
2018-02-16T10:14:19.556Z,97926.27
2018-02-16T10:16:46.630Z,97926.95
2018-02-16T10:19:13.652Z,97917.89
2018-02-16T10:21:40.699Z,97915.88
2018-02-16T10:24:07.792Z,97913.03
2018-02-16T10:26:34.894Z,97918.35
2018-02-16T10:29:02.109Z,97917.84
2018-02-16T10:31:29.184Z,97922.05
2018-02-16T10:33:56.231Z,97922.84
2018-02-16T10:36:23.296Z,97926.97
2018-02-16T10:38:50.375Z,97931.66
2018-02-16T10:41:17.463Z,97928.66
2018-02-16T10:43:44.463Z,97935.80
2018-02-16T10:46:11.555Z,97940.51
2018-02-16T10:48:39.235Z,97929.55
2018-02-16T10:51:06.303Z,97933.57
2018-02-16T10:53:33.399Z,97936.41
2018-02-16T10:56:00.410Z,97934.39
2018-02-16T10:58:27.499Z,97919.94
2018-02-16T11:01:00.161Z,97914.81
2018-02-16T11:03:32.920Z,97912.80
2018-02-16T11:06:00.921Z,97917.28
2018-02-16T11:08:33.563Z,97920.54
2018-02-16T11:11:00.580Z,97921.17
2018-02-16T11:13:27.664Z,97927.50
2018-02-16T11:15:54.689Z,97926.54
2018-02-16T11:18:21.755Z,97923.58
2018-02-16T11:20:48.850Z,97921.94
2018-02-16T11:23:15.900Z,97926.42
2018-02-16T11:25:42.913Z,97936.45
2018-02-16T11:28:09.988Z,97926.51
2018-02-16T11:30:37.036Z,97927.52
2018-02-16T11:33:04.680Z,97923.05
2018-02-16T11:35:31.812Z,97923.58
2018-02-16T11:37:58.948Z,97926.19
2018-02-16T11:40:26.171Z,97922.25
2018-02-16T11:42:53.242Z,97919.78
2018-02-16T11:45:20.278Z,97918.16
2018-02-16T11:47:47.372Z,97911.52
2018-02-16T11:50:14.374Z,97908.98
2018-02-16T11:52:41.454Z,97901.58
2018-02-16T11:55:08.485Z,97909.98
2018-02-16T11:57:35.652Z,97909.38
2018-02-16T12:00:02.739Z,97913.22
2018-02-16T12:02:29.858Z,97911.78
2018-02-16T12:04:56.916Z,97909.77
2018-02-16T12:07:23.969Z,97908.31
2018-02-16T12:09:51.032Z,97910.06
2018-02-16T12:12:18.031Z,97907.94
2018-02-16T12:14:44.987Z,97897.48
2018-02-16T12:17:12.024Z,97896.00
2018-02-16T12:19:39.082Z,97890.42
2018-02-16T12:22:06.095Z,97895.50
2018-02-16T12:24:33.109Z,97901.20
2018-02-16T12:27:00.203Z,97903.41
2018-02-16T12:29:27.276Z,97903.73
2018-02-16T12:31:54.301Z,97893.61
2018-02-16T12:34:21.378Z,97889.28
2018-02-16T12:36:48.715Z,97881.80
2018-02-16T12:39:15.808Z,97878.20
2018-02-16T12:41:42.956Z,97865.27
2018-02-16T12:44:10.042Z,97871.48
2018-02-16T12:46:37.067Z,97877.31
2018-02-16T12:49:04.111Z,97877.51
2018-02-16T12:51:31.113Z,97874.64
2018-02-16T12:53:58.175Z,97869.84
2018-02-16T12:56:25.250Z,97863.34
2018-02-16T12:58:52.209Z,97860.52
2018-02-16T13:01:19.316Z,97859.50
2018-02-16T13:03:46.305Z,97858.56
2018-02-16T13:06:13.375Z,97849.94
2018-02-16T13:08:40.473Z,97841.31
2018-02-16T13:11:07.521Z,97839.47
2018-02-16T13:13:34.595Z,97829.48
2018-02-16T13:16:01.632Z,97839.84
2018-02-16T13:18:28.665Z,97831.01
2018-02-16T13:20:55.731Z,97834.56
2018-02-16T13:23:22.775Z,97830.92
2018-02-16T13:25:49.775Z,97828.28
2018-02-16T13:28:16.822Z,97825.25
2018-02-16T13:30:43.874Z,97817.59
2018-02-16T13:33:11.167Z,97825.23
2018-02-16T13:35:38.130Z,97821.41
2018-02-16T13:38:05.158Z,97822.91
2018-02-16T13:40:32.235Z,97827.23
2018-02-16T13:42:59.277Z,97826.03
2018-02-16T13:45:26.355Z,97819.52
2018-02-16T13:47:53.454Z,97819.66
2018-02-16T13:50:20.738Z,97826.92
2018-02-16T13:52:47.789Z,97827.58
2018-02-16T13:55:14.912Z,97824.69
2018-02-16T13:57:41.948Z,97829.22
2018-02-16T14:00:08.943Z,97823.33
2018-02-16T14:02:36.071Z,97815.86
2018-02-16T14:05:03.190Z,97814.82
2018-02-16T14:07:30.809Z,97810.59
2018-02-16T14:09:57.856Z,97808.52
2018-02-16T14:12:24.895Z,97807.92
2018-02-16T14:14:51.922Z,97809.39
2018-02-16T14:17:19.009Z,97811.99
2018-02-16T14:19:46.009Z,97813.72
2018-02-16T14:22:13.046Z,97823.88
2018-02-16T14:24:40.093Z,97821.13
2018-02-16T14:27:07.155Z,97823.76
2018-02-16T14:29:34.214Z,97820.30
2018-02-16T14:32:01.175Z,97815.72
2018-02-16T14:34:28.197Z,97816.04
2018-02-16T14:36:55.238Z,97805.19
2018-02-16T14:39:22.302Z,97805.34
2018-02-16T14:41:49.344Z,97801.69
2018-02-16T14:44:16.434Z,97801.94
2018-02-16T14:46:43.401Z,97800.41
2018-02-16T14:49:10.370Z,97804.23
2018-02-16T14:51:37.502Z,97797.80
2018-02-16T14:54:04.598Z,97804.26
2018-02-16T14:56:31.616Z,97806.13
2018-02-16T14:58:58.716Z,97798.70
2018-02-16T15:01:25.745Z,97806.03
2018-02-16T15:03:52.808Z,97807.64
2018-02-16T15:06:20.301Z,97812.08
2018-02-16T15:08:47.361Z,97813.45
2018-02-16T15:11:14.492Z,97807.80
2018-02-16T15:13:42.234Z,97811.46
2018-02-16T15:16:09.310Z,97808.39
2018-02-16T15:18:36.378Z,97803.91
2018-02-16T15:21:03.511Z,97802.91
2018-02-16T15:23:30.599Z,97799.08
2018-02-16T15:25:57.670Z,97792.59
2018-02-16T15:28:24.699Z,97786.84
2018-02-16T15:30:51.741Z,97788.25
2018-02-16T15:33:18.814Z,97786.54
2018-02-16T15:35:45.853Z,97790.82
2018-02-16T15:38:12.869Z,97795.90
2018-02-16T15:40:39.848Z,97799.31
2018-02-16T15:43:06.894Z,97799.73
2018-02-16T15:45:34.775Z,97797.80
2018-02-16T15:48:01.788Z,97796.42
2018-02-16T15:50:30.242Z,97796.21
2018-02-16T15:52:57.285Z,97790.83
2018-02-16T15:55:24.517Z,97795.50
2018-02-16T15:57:51.685Z,97797.48
2018-02-16T16:00:18.669Z,97803.98
2018-02-16T16:02:45.713Z,97808.90
2018-02-16T16:05:12.747Z,97811.98
2018-02-16T16:07:39.815Z,97805.92
2018-02-16T16:10:06.884Z,97804.61
2018-02-16T16:12:33.940Z,97802.62
2018-02-16T16:15:00.968Z,97803.35
2018-02-16T16:17:27.979Z,97813.97
2018-02-16T16:19:54.997Z,97815.50
2018-02-16T16:22:22.029Z,97815.75
2018-02-16T16:24:49.131Z,97810.83
2018-02-16T16:27:16.207Z,97808.74
2018-02-16T16:29:43.220Z,97800.06
2018-02-16T16:32:10.340Z,97798.06
2018-02-16T16:34:37.822Z,97799.84
2018-02-16T16:37:04.868Z,97797.44
2018-02-16T16:39:31.936Z,97789.75
2018-02-16T16:41:59.003Z,97784.88
2018-02-16T16:44:26.258Z,97788.75
2018-02-16T16:46:53.263Z,97788.45
2018-02-16T16:49:20.271Z,97783.95
2018-02-16T16:51:47.311Z,97795.23
2018-02-16T16:54:14.316Z,97792.78
2018-02-16T16:56:41.383Z,97799.80
2018-02-16T16:59:08.453Z,97799.58
2018-02-16T17:01:35.549Z,97806.05
2018-02-16T17:04:02.607Z,97807.62
2018-02-16T17:06:29.656Z,97816.55
2018-02-16T17:08:56.689Z,97815.06
2018-02-16T17:11:23.844Z,97814.22
2018-02-16T17:13:50.833Z,97816.55
2018-02-16T17:16:17.822Z,97814.05
2018-02-16T17:18:44.834Z,97814.95
2018-02-16T17:21:12.133Z,97817.75
2018-02-16T17:23:39.177Z,97814.96
2018-02-16T17:26:06.224Z,97819.88
2018-02-16T17:28:33.272Z,97819.87
2018-02-16T17:31:00.334Z,97823.27
2018-02-16T17:33:27.431Z,97835.30
2018-02-16T17:35:54.439Z,97840.27
2018-02-16T17:38:21.481Z,97842.19
2018-02-16T17:40:48.713Z,97843.58
2018-02-16T17:43:15.950Z,97844.16
2018-02-16T17:45:43.057Z,97839.49
2018-02-16T17:48:10.181Z,97849.56
2018-02-16T17:50:37.330Z,97841.48
2018-02-16T17:53:04.515Z,97842.99
2018-02-16T17:55:31.561Z,97843.14
2018-02-16T17:57:58.609Z,97851.67
2018-02-16T18:00:25.591Z,97850.08
2018-02-16T18:02:52.555Z,97846.13
2018-02-16T18:05:19.590Z,97843.55
2018-02-16T18:07:46.758Z,97845.55
2018-02-16T18:10:13.806Z,97835.22
2018-02-16T18:12:40.817Z,97831.66
2018-02-16T18:15:07.881Z,97828.98
2018-02-16T18:17:35.055Z,97824.70
2018-02-16T18:20:02.099Z,97833.98
2018-02-16T18:22:29.223Z,97826.94
2018-02-16T18:24:56.396Z,97835.01
2018-02-16T18:27:23.641Z,97827.92
2018-02-16T18:29:50.898Z,97840.23
2018-02-16T18:32:17.935Z,97835.94
2018-02-16T18:34:44.961Z,97836.70
2018-02-16T18:37:12.643Z,97827.63
2018-02-16T18:39:39.659Z,97824.70
2018-02-16T18:42:06.742Z,97827.72
2018-02-16T18:44:34.257Z,97828.60
2018-02-16T18:47:01.354Z,97832.48
2018-02-16T18:49:29.138Z,97829.27
2018-02-16T18:51:56.169Z,97826.47
2018-02-16T18:54:23.222Z,97800.49
2018-02-16T18:56:50.290Z,97802.97
2018-02-16T18:59:17.365Z,97814.40
2018-02-16T19:01:44.450Z,97813.20
2018-02-16T19:04:11.538Z,97812.17
2018-02-16T19:06:38.579Z,97800.94
2018-02-16T19:09:05.581Z,97809.23
2018-02-16T19:11:32.913Z,97808.73
2018-02-16T19:14:00.805Z,97807.05
2018-02-16T19:16:27.882Z,97804.06
2018-02-16T19:18:54.906Z,97802.61
2018-02-16T19:21:21.953Z,97800.80
2018-02-16T19:23:49.071Z,97797.07
2018-02-16T19:26:16.088Z,97798.94
2018-02-16T19:28:43.127Z,97801.77
2018-02-16T19:31:10.187Z,97805.60
2018-02-16T19:33:37.222Z,97802.15
2018-02-16T19:36:04.269Z,97796.05
2018-02-16T19:38:31.287Z,97793.02
2018-02-16T19:40:58.314Z,97796.98
2018-02-16T19:43:25.303Z,97795.72
2018-02-16T19:45:52.246Z,97793.91
2018-02-16T19:48:19.208Z,97801.09
2018-02-16T19:50:46.262Z,97801.45
2018-02-16T19:53:14.077Z,97805.42
2018-02-16T19:55:41.140Z,97797.91
2018-02-16T19:58:08.206Z,97802.06
2018-02-16T20:00:35.245Z,97797.86
2018-02-16T20:03:02.289Z,97792.31
2018-02-16T20:05:29.360Z,97781.61
2018-02-16T20:07:56.530Z,97781.31
2018-02-16T20:10:23.540Z,97783.60
2018-02-16T20:12:50.537Z,97785.94
2018-02-16T20:15:17.562Z,97786.73
2018-02-16T20:17:44.610Z,97795.55
2018-02-16T20:20:11.675Z,97795.47
2018-02-16T20:22:38.756Z,97799.94
2018-02-16T20:25:05.795Z,97800.55
2018-02-16T20:27:32.806Z,97793.31
2018-02-16T20:29:59.854Z,97803.29
2018-02-16T20:32:26.877Z,97794.44
2018-02-16T20:34:54.068Z,97793.33
2018-02-16T20:37:21.090Z,97787.63
2018-02-16T20:39:48.188Z,97790.25
2018-02-16T20:42:15.215Z,97782.55
2018-02-16T20:44:42.287Z,97785.72
2018-02-16T20:47:09.342Z,97792.38
2018-02-16T20:49:36.435Z,97788.94
2018-02-16T20:52:03.499Z,97793.91
2018-02-16T20:54:30.428Z,97794.09
2018-02-16T20:56:57.513Z,97790.94
2018-02-16T20:59:24.538Z,97781.47
2018-02-16T21:01:51.632Z,97780.97
2018-02-16T21:04:18.726Z,97775.65
2018-02-16T21:06:45.771Z,97781.58
2018-02-16T21:09:12.804Z,97782.19
2018-02-16T21:11:39.883Z,97778.25
2018-02-16T21:14:06.967Z,97776.22
2018-02-16T21:16:34.055Z,97771.60
2018-02-16T21:19:01.132Z,97780.83
2018-02-16T21:21:28.222Z,97780.38
2018-02-16T21:23:55.397Z,97780.97
2018-02-16T21:26:22.475Z,97776.77
2018-02-16T21:28:49.571Z,97775.61
2018-02-16T21:31:16.643Z,97778.11
2018-02-16T21:33:43.593Z,97776.86
2018-02-16T21:36:10.664Z,97774.31
2018-02-16T21:38:37.668Z,97775.25
2018-02-16T21:41:04.663Z,97779.34
2018-02-16T21:43:31.636Z,97777.09
2018-02-16T21:45:58.690Z,97781.84
2018-02-16T21:48:25.686Z,97783.89
2018-02-16T21:50:52.701Z,97778.50
2018-02-16T21:53:19.774Z,97767.55
2018-02-16T21:55:46.825Z,97772.63
2018-02-16T21:58:13.914Z,97772.45
2018-02-16T22:00:41.015Z,97772.35
2018-02-16T22:03:08.085Z,97775.89
2018-02-16T22:05:35.128Z,97770.73
2018-02-16T22:08:02.153Z,97767.52
2018-02-16T22:10:29.258Z,97761.03
2018-02-16T22:12:56.373Z,97757.41
2018-02-16T22:15:23.492Z,97756.38
2018-02-16T22:17:50.507Z,97756.05
2018-02-16T22:20:18.422Z,97754.64
2018-02-16T22:22:45.551Z,97746.97
2018-02-16T22:25:12.643Z,97750.13
2018-02-16T22:27:39.752Z,97749.67
2018-02-16T22:30:06.806Z,97754.94
2018-02-16T22:32:33.968Z,97766.11
2018-02-16T22:35:00.995Z,97756.98
2018-02-16T22:37:28.079Z,97751.89
2018-02-16T22:39:55.085Z,97757.11
2018-02-16T22:42:22.086Z,97753.67
2018-02-16T22:44:49.104Z,97748.41
2018-02-16T22:47:16.164Z,97735.36
2018-02-16T22:49:43.148Z,97733.64
2018-02-16T22:52:10.250Z,97729.36
2018-02-16T22:54:37.311Z,97728.62
2018-02-16T22:57:04.487Z,97730.09
2018-02-16T22:59:31.546Z,97720.74
2018-02-16T23:01:58.607Z,97720.51
2018-02-16T23:04:25.578Z,97721.06
2018-02-16T23:06:52.571Z,97720.56
2018-02-16T23:09:19.857Z,97725.81
2018-02-16T23:11:46.927Z,97725.49
2018-02-16T23:14:13.953Z,97710.59
2018-02-16T23:16:40.926Z,97710.03
2018-02-16T23:19:07.928Z,97694.42
2018-02-16T23:21:34.991Z,97702.85
2018-02-16T23:24:02.279Z,97698.63
2018-02-16T23:26:29.294Z,97703.83
2018-02-16T23:28:56.333Z,97703.55
2018-02-16T23:31:23.379Z,97709.33
2018-02-16T23:33:50.348Z,97707.01
2018-02-16T23:36:17.401Z,97701.88
2018-02-16T23:38:44.445Z,97696.90
2018-02-16T23:41:11.532Z,97694.02
2018-02-16T23:43:39.125Z,97693.72
2018-02-16T23:46:06.078Z,97687.34
2018-02-16T23:48:33.149Z,97677.44
2018-02-16T23:51:00.217Z,97681.07
2018-02-16T23:53:27.239Z,97670.81
2018-02-16T23:55:54.283Z,97671.23
2018-02-16T23:58:21.585Z,97666.03
